• Join FlightAware (Why Join?)
  • Login
  • US Flag 
11:12PM EDT


 

Airport Tracker/Info


-or-


 

Live Flight TrackerFlight Track Log ✈ AAL963 ✈ 29-Dec-2013 ✈ KDFW - SBGR / GRU

Flight Track Log - Related Links

Times and Time Zones

All times are in EST time to prevent confusion due to time zone crossing. See the AAL963 flight status page for this flight to view local times or setup timezone preferences in your user account.

Time Position Orientation Groundspeed Altitude Reporting Facility
EST Latitude Longitude Course Direction KTS MPH feet Rate Location/Type
10:14PM 32.9375 -97.0236 14° North 183 211 2,100  Level FlightAware ADS-B (KAFW)
10:14PM 32.9581 -97.0185 12° North 211 243 2,400 1,140 Climbing FlightAware ADS-B (KAFW)
10:14PM 32.9804 -97.0133 11° North 234 269 2,900 1,740 Climbing FlightAware ADS-B (KAFW)
10:14PM 32.9971 -97.0099 10° North 240 276 3,500 2,100 Climbing FlightAware ADS-B (KAFW)
10:15PM 33.0197 -97.0051 10° North 249 287 4,200 1,860 Climbing FlightAware ADS-B (KAFW)
10:15PM 33.0411 -96.9888 33° Northeast 266 306 4,800 1,740 Climbing FlightAware ADS-B (KAFW)
10:15PM 33.0498 -96.9579 71° East 279 321 5,400 2,040 Climbing FlightAware ADS-B (KAFW)
10:16PM 33.0475 -96.9289 95° East 282 325 6,200 2,460 Climbing FlightAware ADS-B (KAFW)
10:16PM 33.0432 -96.8959 99° East 285 328 7,100 2,340 Climbing FlightAware ADS-B (KAFW)
10:17PM 33.0388 -96.8643 99° East 289 333 7,800 2,100 Climbing FlightAware ADS-B (KAFW)
10:17PM 33.0347 -96.8375 100° East 295 339 8,400 1,860 Climbing FlightAware ADS-B (KAFW)
10:17PM 33.0246 -96.7697 100° East 308 354 9,600 1,560 Climbing FlightAware ADS-B (KAFW)
10:18PM 33.0138 -96.6976 100° East 337 388 10,600 1,260 Climbing FlightAware ADS-B (KAFW)
10:19PM 33.0025 -96.6234 100° East 372 428 11,400 2,460 Climbing FlightAware ADS-B (KAFW)
10:20PM 32.9881 -96.5208 133° Southeast 380 437 14,200 2,940 Climbing Fort Worth Center
10:20PM 32.9830 -96.4933 100° East 391 450 14,400 2,280 Climbing FlightAware ADS-B (KAFW)
10:20PM 32.9708 -96.4129 100° East 399 459 16,200 2,040 Climbing FlightAware ADS-B (KAFW)
10:25PM 32.5903 -95.9298 133° Southeast  Level Estimated
10:26PM 32.8504 -95.6388 133° Southeast 509 586 26,400  Level FlightAware ADS-B
10:28PM 32.6820 -95.2242 116° Southeast 543 625 29,600 1,380 Climbing FlightAware ADS-B
10:29PM 32.6179 -95.0869 119° Southeast 539 620 31,500 2,040 Climbing FlightAware ADS-B
10:30PM 32.5794 -95.0049 119° Southeast 534 615 32,500 1,680 Climbing FlightAware ADS-B
10:30PM 32.5376 -94.9161 119° Southeast 534 615 33,400 1,500 Climbing FlightAware ADS-B
10:30PM 32.5304 -94.9008 119° Southeast 534 615 33,500 1,440 Climbing FlightAware ADS-B (KDTN)
10:31PM 32.5009 -94.8423 121° Southeast 529 609 34,100 1,500 Climbing FlightAware ADS-B
10:31PM 32.4855 -94.8129 122° Southeast 528 608 34,500 1,320 Climbing FlightAware ADS-B (KDTN)
10:31PM 32.4617 -94.7673 122° Southeast 527 606 34,800 600 Climbing FlightAware ADS-B
10:32PM 32.4180 -94.6839 122° Southeast 528 608 35,000 240 Climbing FlightAware ADS-B
10:32PM 32.4063 -94.6616 122° Southeast 528 608 35,000  Level FlightAware ADS-B (KDTN)
10:32PM 32.3910 -94.6320 122° Southeast 530 610 35,000  Level FlightAware ADS-B
10:32PM 32.3740 -94.5992 122° Southeast 530 610 35,000  Level FlightAware ADS-B
10:33PM 32.3345 -94.5231 122° Southeast 532 612 35,000  Level FlightAware ADS-B
10:33PM 32.3068 -94.4695 121° Southeast 534 615 35,000  Level FlightAware ADS-B
10:34PM 32.2945 -94.4457 121° Southeast 533 613 35,000  Level FlightAware ADS-B
10:34PM 32.2534 -94.3664 121° Southeast 533 613 35,000  Level FlightAware ADS-B
10:34PM 32.2523 -94.3642 121° Southeast 533 613 35,000  Level FlightAware ADS-B (KDTN)
10:34PM 32.2393 -94.3391 122° Southeast 534 615 35,000  Level FlightAware ADS-B
10:35PM 32.2047 -94.2725 122° Southeast 533 613 35,000  Level FlightAware ADS-B
10:35PM 32.1996 -94.2626 121° Southeast 532 612 35,000  Level FlightAware ADS-B (KDTN)
10:35PM 32.1649 -94.1959 122° Southeast 532 612 35,000  Level FlightAware ADS-B
10:35PM 32.1585 -94.1836 122° Southeast 531 611 35,000  Level FlightAware ADS-B
10:35PM 32.1547 -94.1765 122° Southeast 530 610 35,000  Level FlightAware ADS-B (KDTN)
10:36PM 32.1222 -94.1141 122° Southeast 529 609 35,000  Level FlightAware ADS-B
10:36PM 32.0970 -94.0659 122° Southeast 528 608 35,000  Level FlightAware ADS-B (KDTN)
10:37PM 32.0622 -93.9996 122° Southeast 527 606 35,000  Level FlightAware ADS-B
10:37PM 32.0480 -93.9728 122° Southeast 527 606 35,000  Level FlightAware ADS-B (KDTN)
10:37PM 32.0643 -94.0037 302° West 528 608 35,000  Level FlightAware ADS-B
10:37PM 32.0175 -93.9146 122° Southeast 527 606 35,000  Level FlightAware ADS-B
10:37PM 31.9948 -93.8716 122° Southeast 526 605 35,000  Level FlightAware ADS-B (KDTN)
10:38PM 31.9740 -93.8323 122° Southeast 525 604 35,000  Level FlightAware ADS-B
10:38PM 31.9445 -93.7764 122° Southeast 524 603 35,000  Level FlightAware ADS-B (KDTN)
10:39PM 31.8953 -93.6834 122° Southeast 524 603 35,000  Level FlightAware ADS-B
10:39PM 31.8903 -93.6740 122° Southeast 524 603 35,000  Level FlightAware ADS-B (KDTN)
10:39PM 31.8398 -93.5790 122° Southeast 526 605 35,000  Level FlightAware ADS-B (KDTN)
10:41PM 31.7233 -93.3602 122° Southeast 528 608 35,000  Level FlightAware ADS-B (KDTN)
10:42PM 31.6648 -93.2507 122° Southeast 528 608 35,000  Level FlightAware ADS-B
10:44PM 31.5023 -92.9485 122° Southeast 528 608 35,000  Level FlightAware ADS-B
10:44PM 31.4573 -92.8654 122° Southeast 526 605 35,000  Level FlightAware ADS-B
10:45PM 31.4137 -92.7848 122° Southeast 526 605 35,000  Level FlightAware ADS-B
10:45PM 31.3722 -92.7085 122° Southeast 527 606 35,000  Level FlightAware ADS-B
10:46PM 31.3103 -92.5948 122° Southeast 528 608 35,000  Level FlightAware ADS-B
10:47PM 31.2270 -92.4421 123° Southeast 527 606 35,000  Level FlightAware ADS-B
10:48PM 31.1475 -92.2971 123° Southeast 530 610 35,000  Level FlightAware ADS-B
10:49PM 31.1047 -92.2217 123° Southeast 529 609 35,000  Level Houston Center
10:50PM 31.0256 -92.0775 123° Southeast 526 605 35,000  Level Houston Center
10:51PM 30.9531 -91.9458 123° Southeast 530 610 35,000  Level Houston Center
10:52PM 30.8742 -91.8039 123° Southeast 527 606 35,000  Level Houston Center
10:53PM 30.7933 -91.6600 123° Southeast 528 608 35,000  Level Houston Center
10:54PM 30.6972 -91.4869 123° Southeast 532 612 35,000  Level Houston Center
10:55PM 30.6169 -91.3450 123° Southeast 532 612 35,000 -60 Level Houston Center
10:56PM 30.5369 -91.2031 123° Southeast 527 606 34,900 -60 Descending Houston Center
10:57PM 30.4583 -91.0606 123° Southeast 527 606 34,900  Level Houston Center
10:58PM 30.3767 -90.9183 124° Southeast 530 610 35,000  Climbing Houston Center
10:59PM 30.2969 -90.7775 123° Southeast 526 605 34,900 -60 Descending Houston Center
11:00PM 30.2169 -90.6367 123° Southeast 525 604 34,900  Level Houston Center
11:01PM 30.1469 -90.4911 119° Southeast 527 606 35,000  Climbing Houston Center
11:02PM 30.0983 -90.3281 109° East 539 620 35,000  Level Houston Center
11:03PM 30.0464 -90.1678 110° East 537 618 35,000  Level Houston Center
11:04PM 29.9808 -89.9797 112° Southeast 535 616 35,000 -60 Level Houston Center
11:05PM 29.9289 -89.8211 111° Southeast 536 617 34,900 -60 Descending Houston Center
11:06PM 29.8806 -89.6608 109° East 535 616 34,900  Level Houston Center
11:07PM 29.8306 -89.5000 110° East 537 618 35,000  Climbing Houston Center
11:08PM 29.7789 -89.3392 110° East 539 620 35,000 -60 Level Houston Center
11:09PM 29.7286 -89.1792 110° East 536 617 34,900 -60 Descending Houston Center
11:10PM 29.6769 -89.0197 110° East 534 615 34,900  Level Houston Center
11:11PM 29.6269 -88.8608 110° East 531 611 35,000  Climbing Houston Center
11:12PM 29.5747 -88.7028 111° Southeast 532 612 35,000  Level Houston Center
11:13PM 29.5242 -88.5442 110° East 531 611 35,000 -60 Level Houston Center
11:14PM 29.4728 -88.3853 110° East 531 611 34,900  Descending Houston Center
11:15PM 29.4094 -88.2094 112° Southeast 531 611 35,000  Climbing Houston Center
11:16PM 29.3456 -88.0600 116° Southeast 526 605 35,000 -60 Level Houston Center
11:17PM 29.2875 -87.9183 115° Southeast 527 606 34,900 -60 Descending Houston Center
11:18PM 29.2247 -87.7658 115° Southeast 530 610 34,900  Level Houston Center
11:19PM 29.1511 -87.5850 115° Southeast 526 605 35,000  Climbing Houston Center
11:20PM 29.0892 -87.4339 115° Southeast 526 605 35,000 -60 Level Houston Center
11:21PM 29.0250 -87.2833 116° Southeast 527 606 34,900  Descending Houston Center
11:22PM 28.9633 -87.1342 115° Southeast 524 603 35,000  Climbing Houston Center
11:23PM 28.9006 -86.9839 115° Southeast 525 604 35,000  Level Houston Center
11:24PM 28.8375 -86.8353 116° Southeast 523 602 35,000  Level Houston Center
11:25PM 28.7750 -86.6858 115° Southeast 524 603 35,000  Level Houston Center
11:27PM 28.7000 -86.5114 116° Southeast 519 597 35,000  Level Jacksonville Center
11:28PM 28.6372 -86.3647 116° Southeast 524 603 35,000  Level Jacksonville Center
11:29PM 28.5722 -86.2161 116° Southeast 519 597 35,000  Level Jacksonville Center
11:30PM 28.5092 -86.0722 116° Southeast 518 596 35,000  Level Jacksonville Center
11:31PM 28.4439 -85.9239 117° Southeast 523 602 35,000  Level Jacksonville Center
11:32PM 28.3786 -85.7708 116° Southeast 523 602 35,000  Level Jacksonville Center
11:34PM 28.2467 -85.4639 116° Southeast 525 604 35,000  Level Miami Center
11:35PM 28.1825 -85.3156 116° Southeast 532 612 35,000 -60 Level Miami Center
11:36PM 28.1142 -85.1694 118° Southeast 532 612 34,900  Descending Miami Center
11:37PM 28.0517 -85.0239 116° Southeast 532 612 35,000  Climbing Miami Center
11:38PM 27.9869 -84.8761 116° Southeast 526 605 34,900 -60 Descending Miami Center
11:39PM 27.9264 -84.7286 115° Southeast 521 600 34,900  Level Miami Center
11:40PM 27.8697 -84.5817 114° Southeast 515 593 34,900  Level Miami Center
11:41PM 27.8067 -84.4367 116° Southeast 515 593 34,900  Level Miami Center
11:42PM 27.7478 -84.2875 114° Southeast 515 593 35,000  Climbing Miami Center
11:43PM 27.6883 -84.1456 115° Southeast 521 600 35,000  Level Miami Center
11:48PM 27.3562 -83.3470 115° Southeast 510 587 35,000  Level FlightAware ADS-B (KMCO)
11:49PM 27.3137 -83.2462 115° Southeast 511 588 35,000  Level FlightAware ADS-B (KMCO)
11:53PM 27.0548 -82.6378 115° Southeast 511 588 35,000  Level FlightAware ADS-B (KMCO)
11:55PM 26.9462 -82.3852 116° Southeast 515 593 35,000  Level FlightAware ADS-B (KMCO)
11:55PM 26.9064 -82.2929 116° Southeast 514 592 35,000  Level FlightAware ADS-B (KMCO)
11:56PM 26.8708 -82.2107 116° Southeast 513 590 35,000  Level FlightAware ADS-B (KMCO)
11:57PM 26.8229 -82.1003 116° Southeast 513 590 35,000  Level FlightAware ADS-B (KMCO)
11:58PM 26.7802 -82.0025 116° Southeast 514 592 35,000  Level FlightAware ADS-B (KMCO)
11:58PM 26.7385 -81.9065 116° Southeast 516 594 35,000  Level FlightAware ADS-B (KMCO)
11:59PM 26.6958 -81.8088 116° Southeast 515 593 35,000  Level FlightAware ADS-B (KMCO)
12:00AM 26.6536 -81.7124 116° Southeast 514 592 35,000  Level FlightAware ADS-B (KMCO)
12:01AM 26.5928 -81.5740 116° Southeast 513 590 35,000  Level FlightAware ADS-B (KMCO)
12:01AM 26.5432 -81.4613 116° Southeast 513 590 35,000  Level FlightAware ADS-B (KMCO)
12:02AM 26.5153 -81.3979 116° Southeast 513 590 35,000  Level FlightAware ADS-B (KMCO)
12:03AM 26.4657 -81.2860 116° Southeast 512 589 35,000  Level FlightAware ADS-B (KMCO)
12:03AM 26.4325 -81.2112 116° Southeast 511 588 35,000  Level FlightAware ADS-B (KMCO)
12:04AM 26.3743 -81.0799 116° Southeast 511 588 35,000  Level FlightAware ADS-B (KMCO)
12:05AM 26.3286 -80.9774 116° Southeast 510 587 35,000  Level FlightAware ADS-B (KMCO)
12:08AM 26.0900 -80.4456 116° Southeast 512 589 35,000  Level FlightAware ADS-B (KMCO)
12:10AM 26.0172 -80.2808 116° Southeast 505 581 35,000  Level Miami Center
12:15AM 25.6301 -79.4389 116° Southeast 516 594 35,000  Level FlightAware ADS-B (KMIA)
12:16AM 25.5845 -79.3405 117° Southeast 515 593 35,000  Level FlightAware ADS-B (KMIA)
12:16AM 25.5462 -79.2696 121° Southeast 510 587 35,000  Level FlightAware ADS-B (KMIA)
12:18AM 25.4872 -79.1794 121° Southeast 515 593 35,000 -60 Level Miami Center
12:19AM 25.3889 -79.0625 133° Southeast 509 586 34,900  Descending Miami Center
12:20AM 25.3028 -78.9458 129° Southeast 504 580 35,000  Climbing Miami Center
12:21AM 25.1958 -78.8247 134° Southeast 499 574 35,000  Level Miami Center
12:22AM 25.1075 -78.7086 130° Southeast 499 574 35,000  Level Miami Center
12:23AM 25.0169 -78.5925 131° Southeast 499 574 35,000  Level Miami Center
12:24AM 24.9242 -78.4767 131° Southeast 499 574 35,000  Level Miami Center
12:25AM 24.8314 -78.3608 131° Southeast 499 574 35,000  Level Miami Center
12:26AM 24.7406 -78.2478 131° Southeast 499 574 35,000  Level Miami Center
12:27AM 24.6475 -78.1325 132° Southeast 499 574 35,000  Level Miami Center
12:28AM 24.5544 -78.0172 132° Southeast 499 574 35,000  Level Miami Center
12:29AM 24.4694 -77.9136 132° Southeast 499 574 35,000  Level Miami Center
12:30AM 24.3700 -77.7850 130° Southeast 499 574 35,000  Level Miami Center
12:31AM 24.2786 -77.6728 132° Southeast 499 574 35,000  Level Miami Center
12:32AM 24.1853 -77.5558 131° Southeast 504 580 35,000  Level Miami Center
12:33AM 24.0917 -77.4417 132° Southeast 499 574 35,000  Level Miami Center
12:34AM 24.0000 -77.3297 132° Southeast 499 574 35,000  Level Miami Center
12:35AM 23.9083 -77.2158 131° Southeast 499 574 35,000  Level Miami Center
12:36AM 23.8208 -77.1086 132° Southeast 490 564 35,000  Level Miami Center
12:37AM 23.7292 -76.9972 132° Southeast 485 558 35,000  Level Miami Center
12:38AM 23.6372 -76.8861 132° Southeast 485 558 35,000  Level Miami Center
12:39AM 23.5453 -76.7750 132° Southeast 491 565 35,000  Level Miami Center
12:40AM 23.4553 -76.6642 132° Southeast 491 565 35,000  Level Miami Center
12:41AM 23.3611 -76.5533 133° Southeast 491 565 35,000  Level Miami Center
12:42AM 23.2708 -76.4428 132° Southeast 491 565 35,000  Level Miami Center
12:43AM 23.1764 -76.3278 132° Southeast 491 565 35,000  Level Miami Center
12:44AM 23.0842 -76.2175 132° Southeast 491 565 35,000  Level Miami Center
12:45AM 22.9894 -76.1053 133° Southeast 491 565 35,000  Level Miami Center
12:46AM 22.9075 -76.0064 132° Southeast 491 565 35,000  Level Miami Center
12:47AM 22.8150 -75.8944 132° Southeast 491 565 35,000  Level Miami Center
12:48AM 22.7200 -75.7847 133° Southeast 491 565 35,000  Level Miami Center
12:49AM 22.6294 -75.6753 132° Southeast 491 565 35,000  Level Miami Center
12:50AM 22.5344 -75.5658 133° Southeast 491 565 35,000  Level Miami Center
12:51AM 22.4436 -75.4567 132° Southeast 491 565 35,000  Level Miami Center
12:52AM 22.3508 -75.3453 132° Southeast 491 565 35,000  Level Miami Center
12:53AM 22.2578 -75.2364 133° Southeast 491 565 35,000 -480 Level Miami Center
12:54AM 22.1644 -75.1278 133° Southeast 486 559 34,100 -900 Descending Miami Center
12:55AM 22.0672 -75.0236 135° Southeast 491 565 33,300 -600 Descending Miami Center
12:56AM 21.9658 -74.9267 138° Southeast 491 565 33,000 -180 Descending Miami Center
12:57AM 21.8644 -74.8297 138° Southeast 491 565 33,000  Level Miami Center
12:58AM 21.7586 -74.7353 140° Southeast 491 565 33,000  Level Miami Center
12:59AM 21.6525 -74.6208 135° Southeast 486 559 33,000 -60 Level Miami Center
01:00AM 21.5531 -74.5242 138° Southeast 486 559 32,900  Descending Miami Center
01:01AM 21.4492 -74.4322 141° Southeast 481 554 33,000  Climbing Miami Center
01:02AM 21.3475 -74.3361 139° Southeast 487 560 33,000  Level Miami Center
01:03AM 21.2456 -74.2378 138° Southeast 492 566 33,000 -60 Level Miami Center
01:04AM 21.1439 -74.1419 139° Southeast 492 566 32,900  Descending Miami Center
01:05AM 21.0525 -74.0592 140° Southeast 486 559 33,000  Climbing Miami Center
01:06AM 20.9506 -73.9636 139° Southeast 491 565 32,900  Descending Miami Center
01:07AM 20.8486 -73.8681 139° Southeast 491 565 33,000  Climbing Miami Center
01:08AM 20.7444 -73.7728 139° Southeast 491 565 32,900  Descending Miami Center
01:09AM 20.6422 -73.6775 139° Southeast 491 565 33,000  Climbing Miami Center
01:10AM 20.5403 -73.5825 139° Southeast 491 565 32,900 -60 Descending Miami Center
01:11AM 20.4381 -73.4897 140° Southeast 491 565 32,900  Level Miami Center
01:12AM 20.3381 -73.3969 139° Southeast 491 565 33,000  Climbing Miami Center
01:13AM 20.2358 -73.3047 140° Southeast 491 565 33,000  Level Miami Center
01:14AM 20.1333 -73.2078 138° Southeast 491 565 33,000  Level Miami Center
01:16AM 19.9257 -73.0687 148° Southeast  Level FlightAware Approximate
01:23AM 19.1098 -72.5265 148° Southeast  Level FlightAware Approximate
01:24AM 18.9977 -72.4525 148° Southeast  Level FlightAware Approximate
01:25AM 18.8855 -72.3786 148° Southeast  Level FlightAware Approximate
01:26AM 18.7734 -72.3048 148° Southeast  Level FlightAware Approximate
01:27AM 18.6612 -72.2311 148° Southeast  Level FlightAware Approximate
01:28AM 18.5490 -72.1575 148° Southeast  Level FlightAware Approximate
01:29AM 18.4367 -72.0841 148° Southeast  Level FlightAware Approximate
01:30AM 18.3244 -72.0107 148° Southeast  Level FlightAware Approximate
01:31AM 18.2121 -71.9373 148° Southeast  Level FlightAware Approximate
01:32AM 18.0998 -71.8641 148° Southeast  Level FlightAware Approximate
01:33AM 17.9874 -71.7910 148° Southeast  Level FlightAware Approximate
01:34AM 17.8751 -71.7180 148° Southeast  Level FlightAware Approximate
01:35AM 17.7626 -71.6452 148° Southeast  Level FlightAware Approximate
01:36AM 17.6501 -71.5724 148° Southeast  Level FlightAware Approximate
01:37AM 17.5376 -71.4997 148° Southeast  Level FlightAware Approximate
01:38AM 17.4251 -71.4271 148° Southeast  Level FlightAware Approximate
01:39AM 17.3125 -71.3546 148° Southeast  Level FlightAware Approximate
01:40AM 17.2000 -71.2822 148° Southeast  Level FlightAware Approximate
01:41AM 17.0874 -71.2099 148° Southeast  Level FlightAware Approximate
01:42AM 16.9747 -71.1376 148° Southeast  Level FlightAware Approximate
01:43AM 16.8623 -71.0656 148° Southeast  Level FlightAware Approximate
01:44AM 16.7498 -70.9937 149° Southeast  Level FlightAware Approximate
01:45AM 16.6373 -70.9218 149° Southeast  Level FlightAware Approximate
01:46AM 16.5247 -70.8500 149° Southeast  Level FlightAware Approximate
01:47AM 16.4122 -70.7783 149° Southeast  Level FlightAware Approximate
01:48AM 16.2996 -70.7067 149° Southeast  Level FlightAware Approximate
01:49AM 16.1870 -70.6352 149° Southeast  Level FlightAware Approximate
01:50AM 16.0743 -70.5638 149° Southeast  Level FlightAware Approximate
01:51AM 15.9617 -70.4923 148° Southeast  Level FlightAware Approximate
01:52AM 15.8492 -70.4206 149° Southeast  Level FlightAware Approximate
01:53AM 15.7366 -70.3490 149° Southeast  Level FlightAware Approximate
01:54AM 15.6238 -70.2774 149° Southeast  Level FlightAware Approximate
01:55AM 15.5111 -70.2059 149° Southeast  Level FlightAware Approximate
01:56AM 15.3983 -70.1344 149° Southeast  Level FlightAware Approximate
01:57AM 15.2855 -70.0631 149° Southeast  Level FlightAware Approximate
01:58AM 15.1727 -69.9918 149° Southeast  Level FlightAware Approximate
01:59AM 15.0599 -69.9206 149° Southeast  Level FlightAware Approximate
02:00AM 14.9470 -69.8495 149° Southeast  Level FlightAware Approximate
02:01AM 14.8341 -69.7784 149° Southeast  Level FlightAware Approximate
02:02AM 14.7212 -69.7074 149° Southeast  Level FlightAware Approximate
02:03AM 14.6083 -69.6365 149° Southeast  Level FlightAware Approximate
02:04AM 14.4953 -69.5657 149° Southeast  Level FlightAware Approximate
02:05AM 14.3824 -69.4949 149° Southeast  Level FlightAware Approximate
02:06AM 14.2694 -69.4242 149° Southeast  Level FlightAware Approximate
02:07AM 14.1564 -69.3536 149° Southeast  Level FlightAware Approximate
02:08AM 14.0434 -69.2831 149° Southeast  Level FlightAware Approximate
02:09AM 13.9303 -69.2126 149° Southeast  Level FlightAware Approximate
02:10AM 13.8170 -69.1425 149° Southeast  Level FlightAware Approximate
02:11AM 13.7036 -69.0728 149° Southeast  Level FlightAware Approximate
02:12AM 13.5901 -69.0031 149° Southeast  Level FlightAware Approximate
02:13AM 13.4767 -68.9335 149° Southeast  Level FlightAware Approximate
02:14AM 13.3632 -68.8639 149° Southeast  Level FlightAware Approximate
02:15AM 13.2497 -68.7944 149° Southeast  Level FlightAware Approximate
02:16AM 13.1361 -68.7250 149° Southeast  Level FlightAware Approximate
02:17AM 13.0226 -68.6557 149° Southeast  Level FlightAware Approximate
02:18AM 12.9090 -68.5864 149° Southeast  Level FlightAware Approximate
02:19AM 12.7958 -68.5174 149° Southeast  Level FlightAware Approximate
02:20AM 12.6826 -68.4485 149° Southeast  Level FlightAware Approximate
02:21AM 12.5694 -68.3796 149° Southeast  Level FlightAware Approximate
02:22AM 12.4561 -68.3108 149° Southeast  Level FlightAware Approximate
02:23AM 12.3429 -68.2420 149° Southeast  Level FlightAware Approximate
02:24AM 12.2296 -68.1733 149° Southeast  Level FlightAware Approximate
02:25AM 12.1163 -68.1047 149° Southeast  Level FlightAware Approximate
02:26AM 12.0030 -68.0361 149° Southeast  Level FlightAware Approximate
02:27AM 11.8894 -67.9675 149° Southeast  Level FlightAware Approximate
02:28AM 11.7759 -67.8989 149° Southeast  Level FlightAware Approximate
02:29AM 11.6625 -67.8301 149° Southeast  Level FlightAware Approximate
02:30AM 11.5491 -67.7613 149° Southeast  Level FlightAware Approximate
02:31AM 11.4360 -67.6926 149° Southeast  Level FlightAware Approximate
02:32AM 11.3228 -67.6240 149° Southeast  Level FlightAware Approximate
02:33AM 11.2095 -67.5555 149° Southeast  Level FlightAware Approximate
02:34AM 11.0963 -67.4870 149° Southeast  Level FlightAware Approximate
02:35AM 10.9831 -67.4185 149° Southeast  Level FlightAware Approximate
02:36AM 10.8698 -67.3501 149° Southeast  Level FlightAware Approximate
02:37AM 10.7566 -67.2818 149° Southeast  Level FlightAware Approximate
02:38AM 10.6433 -67.2135 149° Southeast  Level FlightAware Approximate
02:39AM 10.5300 -67.1452 149° Southeast  Level FlightAware Approximate
02:40AM 10.4167 -67.0770 149° Southeast  Level FlightAware Approximate
02:41AM 10.3034 -67.0089 149° Southeast  Level FlightAware Approximate
02:42AM 10.1900 -66.9408 149° Southeast  Level FlightAware Approximate
02:43AM 10.0766 -66.8727 149° Southeast  Level FlightAware Approximate
02:44AM 9.9633 -66.8047 149° Southeast  Level FlightAware Approximate
02:45AM 9.8499 -66.7368 149° Southeast  Level FlightAware Approximate
02:46AM 9.7365 -66.6689 149° Southeast  Level FlightAware Approximate
02:47AM 9.6231 -66.6010 149° Southeast  Level FlightAware Approximate
02:48AM 9.5097 -66.5332 149° Southeast  Level FlightAware Approximate
02:49AM 9.3962 -66.4654 149° Southeast  Level FlightAware Approximate
02:50AM 9.2828 -66.3977 149° Southeast  Level FlightAware Approximate
02:51AM 9.1693 -66.3300 150° Southeast  Level FlightAware Approximate
02:52AM 9.0558 -66.2624 150° Southeast  Level FlightAware Approximate
02:53AM 8.9424 -66.1948 150° Southeast  Level FlightAware Approximate
02:54AM 8.8288 -66.1272 150° Southeast  Level FlightAware Approximate
02:55AM 8.7155 -66.0599 150° Southeast  Level FlightAware Approximate
02:56AM 8.6022 -65.9925 150° Southeast  Level FlightAware Approximate
02:57AM 8.4889 -65.9252 150° Southeast  Level FlightAware Approximate
02:58AM 8.3755 -65.8579 150° Southeast  Level FlightAware Approximate
02:59AM 8.2621 -65.7907 150° Southeast  Level FlightAware Approximate
03:00AM 8.1488 -65.7235 150° Southeast  Level FlightAware Approximate
03:01AM 8.0354 -65.6563 150° Southeast  Level FlightAware Approximate
03:02AM 7.9220 -65.5892 150° Southeast  Level FlightAware Approximate
03:03AM 7.8086 -65.5221 150° Southeast  Level FlightAware Approximate
03:04AM 7.6952 -65.4551 150° Southeast  Level FlightAware Approximate
03:05AM 7.5817 -65.3881 150° Southeast  Level FlightAware Approximate
03:06AM 7.4683 -65.3211 150° Southeast  Level FlightAware Approximate
03:07AM 7.3548 -65.2542 150° Southeast  Level FlightAware Approximate
03:08AM 7.2414 -65.1872 150° Southeast  Level FlightAware Approximate
03:09AM 7.1279 -65.1204 150° Southeast  Level FlightAware Approximate
03:10AM 7.0144 -65.0535 150° Southeast  Level FlightAware Approximate
03:11AM 6.9009 -64.9867 150° Southeast  Level FlightAware Approximate
03:12AM 6.7874 -64.9199 150° Southeast  Level FlightAware Approximate
03:13AM 6.6739 -64.8532 150° Southeast  Level FlightAware Approximate
03:14AM 6.5604 -64.7865 150° Southeast  Level FlightAware Approximate
03:15AM 6.4469 -64.7198 150° Southeast  Level FlightAware Approximate
03:16AM 6.3334 -64.6532 150° Southeast  Level FlightAware Approximate
03:17AM 6.2198 -64.5865 150° Southeast  Level FlightAware Approximate
03:18AM 6.1063 -64.5199 150° Southeast  Level FlightAware Approximate
03:19AM 5.9927 -64.4534 150° Southeast  Level FlightAware Approximate
03:20AM 5.8791 -64.3868 150° Southeast  Level FlightAware Approximate
03:21AM 5.7656 -64.3203 150° Southeast  Level FlightAware Approximate
03:22AM 5.6520 -64.2538 150° Southeast  Level FlightAware Approximate
03:23AM 5.5384 -64.1874 150° Southeast  Level FlightAware Approximate
03:24AM 5.4248 -64.1209 150° Southeast  Level FlightAware Approximate
03:25AM 5.3112 -64.0545 150° Southeast  Level FlightAware Approximate
03:26AM 5.1976 -63.9882 150° Southeast  Level FlightAware Approximate
03:27AM 5.0840 -63.9218 150° Southeast  Level FlightAware Approximate
03:28AM 4.9704 -63.8554 150° Southeast  Level FlightAware Approximate
03:29AM 4.8567 -63.7891 150° Southeast  Level FlightAware Approximate
03:30AM 4.7431 -63.7229 150° Southeast  Level FlightAware Approximate
03:31AM 4.6294 -63.6566 150° Southeast  Level FlightAware Approximate
03:32AM 4.5158 -63.5903 150° Southeast  Level FlightAware Approximate
03:33AM 4.4021 -63.5241 150° Southeast  Level FlightAware Approximate
03:34AM 4.2885 -63.4579 150° Southeast  Level FlightAware Approximate
03:35AM 4.1748 -63.3917 150° Southeast  Level FlightAware Approximate
03:36AM 4.0611 -63.3255 150° Southeast  Level FlightAware Approximate
03:37AM 3.9475 -63.2594 150° Southeast  Level FlightAware Approximate
03:38AM 3.8338 -63.1932 150° Southeast  Level FlightAware Approximate
03:39AM 3.7201 -63.1271 150° Southeast  Level FlightAware Approximate
03:40AM 3.6064 -63.0610 150° Southeast  Level FlightAware Approximate
03:41AM 3.4927 -62.9950 150° Southeast  Level FlightAware Approximate
03:42AM 3.3790 -62.9289 150° Southeast  Level FlightAware Approximate
03:43AM 3.2653 -62.8629 150° Southeast  Level FlightAware Approximate
03:44AM 3.1516 -62.7968 150° Southeast  Level FlightAware Approximate
03:45AM 3.0379 -62.7308 150° Southeast  Level FlightAware Approximate
03:46AM 2.9241 -62.6648 150° Southeast  Level FlightAware Approximate
03:47AM 2.8104 -62.5988 150° Southeast  Level FlightAware Approximate
03:48AM 2.6967 -62.5328 150° Southeast  Level FlightAware Approximate
03:49AM 2.5830 -62.4669 150° Southeast  Level FlightAware Approximate
03:50AM 2.4692 -62.4009 150° Southeast  Level FlightAware Approximate
03:51AM 2.3555 -62.3349 150° Southeast  Level FlightAware Approximate
03:52AM 2.2418 -62.2690 150° Southeast  Level FlightAware Approximate
03:53AM 2.1280 -62.2031 150° Southeast  Level FlightAware Approximate
03:54AM 2.0143 -62.1372 150° Southeast  Level FlightAware Approximate
03:55AM 1.9005 -62.0713 150° Southeast  Level FlightAware Approximate
03:56AM 1.7868 -62.0054 150° Southeast  Level FlightAware Approximate
03:57AM 1.6730 -61.9395 150° Southeast  Level FlightAware Approximate
03:58AM 1.5592 -61.8736 150° Southeast  Level FlightAware Approximate
03:59AM 1.4455 -61.8078 150° Southeast  Level FlightAware Approximate
04:00AM 1.3317 -61.7419 150° Southeast  Level FlightAware Approximate
04:01AM 1.2180 -61.6760 150° Southeast  Level FlightAware Approximate
04:02AM 1.1042 -61.6102 150° Southeast  Level FlightAware Approximate
04:03AM 0.9905 -61.5443 150° Southeast  Level FlightAware Approximate
04:04AM 0.8767 -61.4785 150° Southeast  Level FlightAware Approximate
04:05AM 0.7629 -61.4126 150° Southeast  Level FlightAware Approximate
04:06AM 0.6491 -61.3468 150° Southeast  Level FlightAware Approximate
04:07AM 0.5354 -61.2810 150° Southeast  Level FlightAware Approximate
04:08AM 0.4216 -61.2151 150° Southeast  Level FlightAware Approximate
04:09AM 0.3078 -61.1493 150° Southeast  Level FlightAware Approximate
04:10AM 0.1941 -61.0835 150° Southeast  Level FlightAware Approximate
04:11AM 0.0803 -61.0176 150° Southeast  Level FlightAware Approximate
04:12AM -0.0335 -60.9518 150° Southeast  Level FlightAware Approximate
04:13AM -0.1472 -60.8860 150° Southeast  Level FlightAware Approximate
04:14AM -0.2610 -60.8201 150° Southeast  Level FlightAware Approximate
04:15AM -0.3748 -60.7543 150° Southeast  Level FlightAware Approximate
04:16AM -0.4886 -60.6885 150° Southeast  Level FlightAware Approximate
04:17AM -0.6023 -60.6227 150° Southeast  Level FlightAware Approximate
04:18AM -0.7161 -60.5568 150° Southeast  Level FlightAware Approximate
04:19AM -0.8299 -60.4910 150° Southeast  Level FlightAware Approximate
04:20AM -0.9436 -60.4251 150° Southeast  Level FlightAware Approximate
04:21AM -1.0574 -60.3593 150° Southeast  Level FlightAware Approximate
04:22AM -1.1712 -60.2934 150° Southeast  Level FlightAware Approximate
04:23AM -1.2849 -60.2276 150° Southeast  Level FlightAware Approximate
04:24AM -1.3987 -60.1617 150° Southeast  Level FlightAware Approximate
04:25AM -1.5124 -60.0959 150° Southeast  Level FlightAware Approximate
04:26AM -1.6262 -60.0300 150° Southeast  Level FlightAware Approximate
04:27AM -1.7400 -59.9641 150° Southeast  Level FlightAware Approximate
04:28AM -1.8537 -59.8982 150° Southeast  Level FlightAware Approximate
04:29AM -1.9675 -59.8323 150° Southeast  Level FlightAware Approximate
04:30AM -2.0812 -59.7664 150° Southeast  Level FlightAware Approximate
04:31AM -2.1950 -59.7005 150° Southeast  Level FlightAware Approximate
04:32AM -2.3087 -59.6345 150° Southeast  Level FlightAware Approximate
04:33AM -2.4224 -59.5686 150° Southeast  Level FlightAware Approximate
04:34AM -2.5362 -59.5027 150° Southeast  Level FlightAware Approximate
04:35AM -2.6499 -59.4367 150° Southeast  Level FlightAware Approximate
04:36AM -2.7636 -59.3707 150° Southeast  Level FlightAware Approximate
04:37AM -2.8774 -59.3047 150° Southeast  Level FlightAware Approximate
04:38AM -2.9911 -59.2387 150° Southeast  Level FlightAware Approximate
04:39AM -3.1048 -59.1727 150° Southeast  Level FlightAware Approximate
04:40AM -3.2185 -59.1067 150° Southeast  Level FlightAware Approximate
04:41AM -3.3322 -59.0406 150° Southeast  Level FlightAware Approximate
04:42AM -3.4459 -58.9746 150° Southeast  Level FlightAware Approximate
04:43AM -3.5596 -58.9085 150° Southeast  Level FlightAware Approximate
04:44AM -3.6733 -58.8424 150° Southeast  Level FlightAware Approximate
04:45AM -3.7870 -58.7763 150° Southeast  Level FlightAware Approximate
04:46AM -3.9007 -58.7102 150° Southeast  Level FlightAware Approximate
04:47AM -4.0144 -58.6441 150° Southeast  Level FlightAware Approximate
04:48AM -4.1280 -58.5779 150° Southeast  Level FlightAware Approximate
04:49AM -4.2417 -58.5117 150° Southeast  Level FlightAware Approximate
04:50AM -4.3554 -58.4455 150° Southeast  Level FlightAware Approximate
04:51AM -4.4690 -58.3793 150° Southeast  Level FlightAware Approximate
04:52AM -4.5827 -58.3131 150° Southeast  Level FlightAware Approximate
04:53AM -4.6963 -58.2468 150° Southeast  Level FlightAware Approximate
04:54AM -4.8100 -58.1805 150° Southeast  Level FlightAware Approximate
04:55AM -4.9236 -58.1142 150° Southeast  Level FlightAware Approximate
04:56AM -5.0372 -58.0479 150° Southeast  Level FlightAware Approximate
04:57AM -5.1508 -57.9815 150° Southeast  Level FlightAware Approximate
04:58AM -5.2645 -57.9152 150° Southeast  Level FlightAware Approximate
04:59AM -5.3781 -57.8488 150° Southeast  Level FlightAware Approximate
05:00AM -5.4917 -57.7823 150° Southeast  Level FlightAware Approximate
05:01AM -5.6052 -57.7159 150° Southeast  Level FlightAware Approximate
05:02AM -5.7188 -57.6494 150° Southeast  Level FlightAware Approximate
05:03AM -5.8324 -57.5829 150° Southeast  Level FlightAware Approximate
05:04AM -5.9460 -57.5164 150° Southeast  Level FlightAware Approximate
05:05AM -6.0595 -57.4498 150° Southeast  Level FlightAware Approximate
05:06AM -6.1731 -57.3833 150° Southeast  Level FlightAware Approximate
05:07AM -6.2866 -57.3167 150° Southeast  Level FlightAware Approximate
05:08AM -6.4002 -57.2500 150° Southeast  Level FlightAware Approximate
05:09AM -6.5137 -57.1833 150° Southeast  Level FlightAware Approximate
05:10AM -6.6272 -57.1166 150° Southeast  Level FlightAware Approximate
05:11AM -6.7407 -57.0499 150° Southeast  Level FlightAware Approximate
05:12AM -6.8542 -56.9832 150° Southeast  Level FlightAware Approximate
05:13AM -6.9677 -56.9164 150° Southeast  Level FlightAware Approximate
05:14AM -7.0812 -56.8495 150° Southeast  Level FlightAware Approximate
05:15AM -7.1947 -56.7827 150° Southeast  Level FlightAware Approximate
05:16AM -7.3081 -56.7158 150° Southeast  Level FlightAware Approximate
05:17AM -7.4216 -56.6488 150° Southeast  Level FlightAware Approximate
05:18AM -7.5350 -56.5819 150° Southeast  Level FlightAware Approximate
05:19AM -7.6484 -56.5149 150° Southeast  Level FlightAware Approximate
05:20AM -7.7619 -56.4479 150° Southeast  Level FlightAware Approximate
05:21AM -7.8753 -56.3808 150° Southeast  Level FlightAware Approximate
05:22AM -7.9887 -56.3137 150° Southeast  Level FlightAware Approximate
05:23AM -8.1021 -56.2465 150° Southeast  Level FlightAware Approximate
05:24AM -8.2155 -56.1794 150° Southeast  Level FlightAware Approximate
05:25AM -8.3288 -56.1121 150° Southeast  Level FlightAware Approximate
05:26AM -8.4422 -56.0449 150° Southeast  Level FlightAware Approximate
05:27AM -8.5555 -55.9776 150° Southeast  Level FlightAware Approximate
05:28AM -8.6688 -55.9102 150° Southeast  Level FlightAware Approximate
05:29AM -8.7822 -55.8429 150° Southeast  Level FlightAware Approximate
05:30AM -8.8955 -55.7754 150° Southeast  Level FlightAware Approximate
05:31AM -9.0088 -55.7080 150° Southeast  Level FlightAware Approximate
05:32AM -9.1221 -55.6405 150° Southeast  Level FlightAware Approximate
05:33AM -9.2353 -55.5729 150° Southeast  Level FlightAware Approximate
05:34AM -9.3486 -55.5053 150° Southeast  Level FlightAware Approximate
05:35AM -9.4619 -55.4377 149° Southeast  Level FlightAware Approximate
05:36AM -9.5751 -55.3700 149° Southeast  Level FlightAware Approximate
05:37AM -9.6883 -55.3023 149° Southeast  Level FlightAware Approximate
05:38AM -9.8015 -55.2345 149° Southeast  Level FlightAware Approximate
05:39AM -9.9147 -55.1667 149° Southeast  Level FlightAware Approximate
05:40AM -10.0279 -55.0989 149° Southeast  Level FlightAware Approximate
05:41AM -10.1411 -55.0309 149° Southeast  Level FlightAware Approximate
05:42AM -10.2542 -54.9630 149° Southeast  Level FlightAware Approximate
05:43AM -10.3673 -54.8950 149° Southeast  Level FlightAware Approximate
05:44AM -10.4805 -54.8269 149° Southeast  Level FlightAware Approximate
05:45AM -10.5936 -54.7588 149° Southeast  Level FlightAware Approximate
05:46AM -10.7067 -54.6907 149° Southeast  Level FlightAware Approximate
05:47AM -10.8197 -54.6224 149° Southeast  Level FlightAware Approximate
05:48AM -10.9328 -54.5542 149° Southeast  Level FlightAware Approximate
05:49AM -11.0459 -54.4859 149° Southeast  Level FlightAware Approximate
05:50AM -11.1589 -54.4175 149° Southeast  Level FlightAware Approximate
05:51AM -11.2715 -54.3493 149° Southeast  Level FlightAware Approximate
05:52AM -11.3842 -54.2811 149° Southeast  Level FlightAware Approximate
05:53AM -11.4968 -54.2128 149° Southeast  Level FlightAware Approximate
05:54AM -11.6093 -54.1445 149° Southeast  Level FlightAware Approximate
05:55AM -11.7219 -54.0761 149° Southeast  Level FlightAware Approximate
05:56AM -11.8345 -54.0076 149° Southeast  Level FlightAware Approximate
05:57AM -11.9470 -53.9391 149° Southeast  Level FlightAware Approximate
05:58AM -12.0595 -53.8705 149° Southeast  Level FlightAware Approximate
05:59AM -12.1720 -53.8019 149° Southeast  Level FlightAware Approximate
06:00AM -12.2845 -53.7332 149° Southeast  Level FlightAware Approximate
06:01AM -12.3970 -53.6645 149° Southeast  Level FlightAware Approximate
06:02AM -12.5094 -53.5957 149° Southeast  Level FlightAware Approximate
06:03AM -12.6218 -53.5268 149° Southeast  Level FlightAware Approximate
06:04AM -12.7343 -53.4579 149° Southeast  Level FlightAware Approximate
06:05AM -12.8467 -53.3889 149° Southeast  Level FlightAware Approximate
06:06AM -12.9590 -53.3199 149° Southeast  Level FlightAware Approximate
06:07AM -13.0714 -53.2508 149° Southeast  Level FlightAware Approximate
06:08AM -13.1837 -53.1816 149° Southeast  Level FlightAware Approximate
06:09AM -13.2961 -53.1124 149° Southeast  Level FlightAware Approximate
06:10AM -13.4084 -53.0431 149° Southeast  Level FlightAware Approximate
06:11AM -13.5206 -52.9737 149° Southeast  Level FlightAware Approximate
06:12AM -13.6329 -52.9043 149° Southeast  Level FlightAware Approximate
06:13AM -13.7452 -52.8348 149° Southeast  Level FlightAware Approximate
06:14AM -13.8574 -52.7653 149° Southeast  Level FlightAware Approximate
06:15AM -13.9696 -52.6956 149° Southeast  Level FlightAware Approximate
06:16AM -14.0818 -52.6259 149° Southeast  Level FlightAware Approximate
06:17AM -14.1940 -52.5562 149° Southeast  Level FlightAware Approximate
06:18AM -14.3061 -52.4863 149° Southeast  Level FlightAware Approximate
06:19AM -14.4183 -52.4164 149° Southeast  Level FlightAware Approximate
06:20AM -14.5304 -52.3465 149° Southeast  Level FlightAware Approximate
06:21AM -14.6425 -52.2764 149° Southeast  Level FlightAware Approximate
06:22AM -14.7545 -52.2063 149° Southeast  Level FlightAware Approximate
06:23AM -14.8666 -52.1361 149° Southeast  Level FlightAware Approximate
06:24AM -14.9786 -52.0659 149° Southeast  Level FlightAware Approximate
06:25AM -15.0906 -51.9955 149° Southeast  Level FlightAware Approximate
06:26AM -15.2026 -51.9251 149° Southeast  Level FlightAware Approximate
06:27AM -15.3145 -51.8546 149° Southeast  Level FlightAware Approximate
06:28AM -15.4265 -51.7841 149° Southeast  Level FlightAware Approximate
06:29AM -15.5384 -51.7135 149° Southeast  Level FlightAware Approximate
06:30AM -15.6503 -51.6427 149° Southeast  Level FlightAware Approximate
06:31AM -15.7621 -51.5719 149° Southeast  Level FlightAware Approximate
06:32AM -15.8740 -51.5011 149° Southeast  Level FlightAware Approximate
06:33AM -15.9858 -51.4301 149° Southeast  Level FlightAware Approximate
06:34AM -16.0976 -51.3591 149° Southeast  Level FlightAware Approximate
06:35AM -16.2094 -51.2880 149° Southeast  Level FlightAware Approximate
06:36AM -16.3211 -51.2168 149° Southeast  Level FlightAware Approximate
06:37AM -16.4329 -51.1455 149° Southeast  Level FlightAware Approximate
06:38AM -16.5446 -51.0742 149° Southeast  Level FlightAware Approximate
06:39AM -16.6562 -51.0028 149° Southeast  Level FlightAware Approximate
06:40AM -16.7679 -50.9313 148° Southeast  Level FlightAware Approximate
06:41AM -16.8795 -50.8597 148° Southeast  Level FlightAware Approximate
06:42AM -16.9911 -50.7880 148° Southeast  Level FlightAware Approximate
06:43AM -17.1027 -50.7162 148° Southeast  Level FlightAware Approximate
06:44AM -17.2143 -50.6443 148° Southeast  Level FlightAware Approximate
06:45AM -17.3258 -50.5724 148° Southeast  Level FlightAware Approximate
06:46AM -17.4373 -50.5004 148° Southeast  Level FlightAware Approximate
06:47AM -17.5488 -50.4283 148° Southeast  Level FlightAware Approximate
06:48AM -17.6602 -50.3560 148° Southeast  Level FlightAware Approximate
06:49AM -17.7717 -50.2837 148° Southeast  Level FlightAware Approximate
06:50AM -17.8831 -50.2114 148° Southeast  Level FlightAware Approximate
06:51AM -17.9944 -50.1389 148° Southeast  Level FlightAware Approximate
06:52AM -18.1058 -50.0663 148° Southeast  Level FlightAware Approximate
06:53AM -18.2171 -49.9936 148° Southeast  Level FlightAware Approximate
06:54AM -18.3284 -49.9209 148° Southeast  Level FlightAware Approximate
06:55AM -18.4397 -49.8480 148° Southeast  Level FlightAware Approximate
06:56AM -18.5509 -49.7751 148° Southeast  Level FlightAware Approximate
06:57AM -18.6621 -49.7021 148° Southeast  Level FlightAware Approximate
06:58AM -18.7733 -49.6289 148° Southeast  Level FlightAware Approximate
06:59AM -18.8844 -49.5557 148° Southeast  Level FlightAware Approximate
07:00AM -18.9956 -49.4824 148° Southeast  Level FlightAware Approximate
07:01AM -19.1066 -49.4090 148° Southeast  Level FlightAware Approximate
07:02AM -19.2177 -49.3354 148° Southeast  Level FlightAware Approximate
07:03AM -19.3287 -49.2618 148° Southeast  Level FlightAware Approximate
07:04AM -19.4398 -49.1881 148° Southeast  Level FlightAware Approximate
07:05AM -19.5507 -49.1143 148° Southeast  Level FlightAware Approximate
07:06AM -19.6617 -49.0404 148° Southeast  Level FlightAware Approximate
07:07AM -19.7726 -48.9663 148° Southeast  Level FlightAware Approximate
07:08AM -19.8835 -48.8922 148° Southeast  Level FlightAware Approximate
07:09AM -19.9943 -48.8180 148° Southeast  Level FlightAware Approximate
07:10AM -20.1051 -48.7436 148° Southeast  Level FlightAware Approximate
07:11AM -20.2159 -48.6692 148° Southeast  Level FlightAware Approximate
07:12AM -20.3267 -48.5946 148° Southeast  Level FlightAware Approximate
07:13AM -20.4374 -48.5200 148° Southeast  Level FlightAware Approximate
07:14AM -20.5481 -48.4452 148° Southeast  Level FlightAware Approximate
07:15AM -20.6588 -48.3703 148° Southeast  Level FlightAware Approximate
07:16AM -20.7694 -48.2954 148° Southeast  Level FlightAware Approximate
07:17AM -20.8800 -48.2203 148° Southeast  Level FlightAware Approximate
07:18AM -20.9906 -48.1451 148° Southeast  Level FlightAware Approximate
07:19AM -21.1011 -48.0698 148° Southeast  Level FlightAware Approximate
07:20AM -21.2116 -47.9943 148° Southeast  Level FlightAware Approximate
07:21AM -21.3221 -47.9188 148° Southeast  Level FlightAware Approximate
07:22AM -21.4325 -47.8431 147° Southeast  Level FlightAware Approximate
07:23AM -21.5429 -47.7674 147° Southeast  Level FlightAware Approximate
07:24AM -21.6536 -47.6920 148° Southeast  Level FlightAware Approximate
07:25AM -21.7633 -47.6150 145° Southeast  Level FlightAware Approximate
07:26AM -21.8745 -47.5405 149° Southeast  Level FlightAware Approximate
07:27AM -21.9873 -47.4687 149° Southeast  Level FlightAware Approximate
07:28AM -22.0968 -47.3913 146° Southeast  Level FlightAware Approximate
07:29AM -22.2052 -47.3119 146° Southeast  Level FlightAware Approximate
07:30AM -22.3144 -47.2337 147° Southeast  Level FlightAware Approximate
07:31AM -22.4247 -47.1573 147° Southeast  Level FlightAware Approximate
07:32AM -22.5351 -47.0811 148° Southeast  Level FlightAware Approximate
07:33AM -22.6458 -47.0051 148° Southeast  Level FlightAware Approximate
07:34AM -22.7564 -46.9291 148° Southeast  Level FlightAware Approximate
07:35AM -22.8680 -46.8547 148° Southeast  Level FlightAware Approximate
07:36AM -22.9776 -46.7769 146° Southeast  Level FlightAware Approximate
07:37AM -23.0868 -46.6983 155° Southeast  Level FlightAware Approximate
07:38AM -23.1945 -46.6185 143° Southeast  Level FlightAware Approximate
07:39AM -23.3015 -46.5363 145° Southeast  Level FlightAware Approximate
07:40AM -23.4156 -46.4672 155° Southeast  Level FlightAware Approximate
07:41AM -23.4167 -46.4667 155° Southeast  Level FlightAware Approximate
07:42AM -23.4321 -46.4695 155° Southeast  Level Estimated
07:43AM -23.4321 -46.4695 155° Southeast  Level Estimated
07:44AM -23.4321 -46.4695 155° Southeast  Level Estimated
07:45AM -23.4321 -46.4695 155° Southeast  Level Estimated
07:46AM -23.4321 -46.4695 155° Southeast  Level Estimated
07:47AM -23.4321 -46.4695 155° Southeast  Level Estimated
07:48AM -23.4321 -46.4695 155° Southeast  Level Estimated
07:49AM -23.4321 -46.4695 155° Southeast  Level Estimated
07:50AM -23.4321 -46.4695 155° Southeast  Level Estimated